Latest Weather Observations for Little Bay

IDN60901

Issued at 6:01 am EST Tuesday 24 September 2019 (issued every 10 minutes, with the page automatically refreshed every 10 minutes)

About weather observations | Map of Sydney area stations | Latest observations for Sydney area | Other Formats
Station Details ID: 066051 Name: LITTLE BAY (THE COAST GOLF CLUB) Lat: -33.98 Lon: 151.25 Height: 22.0 m
Data from the previous 72 hours. | See also: Recent months at Little Bay
Date/Time
EST
Temp
°C
App
Temp
°C
Dew
Point
°C
Rel
Hum
%
Delta-T
°C
Wind Press
QNH
hPa
Press
MSL
hPa
Rain since
9am
mm
Dir  Spd
km/h
Gust
km/h
Spd
kts
Gust
kts
24/05:30am - - - - - W 11 13 6 7 - - -
24/05:00am - - - - - W 13 17 7 9 - - -
24/04:30am - - - - - W 15 20 8 11 - - -
24/04:00am - - - - - W 13 20 7 11 - - -
24/03:30am - - - - - WNW 11 17 6 9 - - -
24/03:00am - - - - - WNW 13 17 7 9 - - -
24/02:30am - - - - - W 13 19 7 10 - - -
24/02:00am - - - - - W 11 15 6 8 - - -
24/01:30am - - - - - WSW 15 20 8 11 - - -
24/01:00am - - - - - WSW 15 20 8 11 - - -
24/12:30am - - - - - WSW 13 17 7 9 - - -
24/12:00am - - - - - WSW 13 20 7 11 - - -
 
Date/Time
EST
Temp
°C
App
Temp
°C
Dew
Point
°C
Rel
Hum
%
Delta-T
°C
Wind Press
QNH
hPa
Press
MSL
hPa
Rain since
9am
mm
Dir  Spd
km/h
Gust
km/h
Spd
kts
Gust
kts
23/11:30pm - - - - - W 9 17 5 9 - - -
23/11:00pm - - - - - W 9 15 5 8 - - -
23/10:30pm - - - - - WSW 7 11 4 6 - - -
23/10:00pm - - - - - WSW 13 20 7 11 - - -
23/09:30pm - - - - - WSW 15 22 8 12 - - -
23/09:00pm - - - - - WSW 15 26 8 14 - - -
23/08:30pm - - - - - WSW 15 22 8 12 - - -
23/08:00pm - - - - - WSW 11 17 6 9 - - -
23/07:30pm - - - - - WSW 7 9 4 5 - - -
23/07:00pm - - - - - SW 7 11 4 6 - - -
23/06:30pm - - - - - WSW 13 19 7 10 - - -
23/06:00pm - - - - - WSW 20 33 11 18 - - -
23/05:30pm - - - - - WSW 24 46 13 25 - - -
23/05:22pm - - - - - WSW 28 46 15 25 - - -
23/05:00pm - - - - - WSW 17 32 9 17 - - -
23/04:30pm - - - - - SW 17 32 9 17 - - -
23/04:00pm - - - - - SSE 11 19 6 10 - - -
23/03:30pm - - - - - SSE 15 19 8 10 - - -
23/03:00pm - - - - - SE 15 19 8 10 - - -
23/02:30pm - - - - - SE 6 13 3 7 - - -
23/02:00pm - - - - - ESE 9 13 5 7 - - -
23/01:30pm - - - - - SE 11 15 6 8 - - -
23/01:00pm - - - - - SE 15 20 8 11 - - -
23/12:30pm - - - - - SE 17 24 9 13 - - -
23/12:00pm - - - - - WSW 9 15 5 8 - - -
23/11:30am - - - - - W 9 19 5 10 - - -
23/11:00am - - - - - W 11 19 6 10 - - -
23/10:30am - - - - - WSW 13 20 7 11 - - -
23/10:00am - - - - - WSW 11 19 6 10 - - -
23/09:30am - - - - - W 9 17 5 9 - - -
23/09:00am - - - - - WNW 9 17 5 9 - - -
23/08:30am - - - - - W 9 15 5 8 - - -
23/08:00am - - - - - W 13 19 7 10 - - -
23/07:30am - - - - - W 13 17 7 9 - - -
23/07:00am - - - - - W 9 13 5 7 - - -
23/06:30am - - - - - WSW 6 7 3 4 - - -
23/06:00am - - - - - WSW 9 11 5 6 - - -
23/05:30am - - - - - WSW 9 13 5 7 - - -
23/05:00am - - - - - W 9 11 5 6 - - -
23/04:30am - - - - - WSW 9 13 5 7 - - -
23/04:00am - - - - - WSW 9 13 5 7 - - -
23/03:30am - - - - - WSW 9 13 5 7 - - -
23/03:00am - - - - - WSW 9 13 5 7 - - -
23/02:30am - - - - - WSW 9 13 5 7 - - -
23/02:00am - - - - - WSW 9 13 5 7 - - -
23/01:30am - - - - - SW 9 15 5 8 - - -
23/01:00am - - - - - WSW 7 13 4 7 - - -
23/12:30am - - - - - WSW 7 11 4 6 - - -
23/12:00am - - - - - SW 11 13 6 7 - - -
 
Date/Time
EST
Temp
°C
App
Temp
°C
Dew
Point
°C
Rel
Hum
%
Delta-T
°C
Wind Press
QNH
hPa
Press
MSL
hPa
Rain since
9am
mm
Dir  Spd
km/h
Gust
km/h
Spd
kts
Gust
kts
22/11:30pm - - - - - SW 13 17 7 9 - - -
22/11:00pm - - - - - SW 9 15 5 8 - - -
22/10:30pm - - - - - SW 11 17 6 9 - - -
22/10:00pm - - - - - SW 7 11 4 6 - - -
22/09:30pm - - - - - SSW 7 7 4 4 - - -
22/09:00pm - - - - - S 6 6 3 3 - - -
22/08:30pm - - - - - SE 6 9 3 5 - - -
22/08:00pm - - - - - SE 7 9 4 5 - - -
22/07:30pm - - - - - SE 7 9 4 5 - - -
22/07:00pm - - - - - SE 11 13 6 7 - - -
22/06:30pm - - - - - ESE 13 17 7 9 - - -
22/06:00pm - - - - - ESE 15 19 8 10 - - -
22/05:30pm - - - - - ESE 17 22 9 12 - - -
22/05:00pm - - - - - ESE 15 20 8 11 - - -
22/04:30pm - - - - - ESE 17 20 9 11 - - -
22/04:00pm - - - - - ESE 17 22 9 12 - - -
22/03:30pm - - - - - ESE 19 24 10 13 - - -
22/03:00pm - - - - - ESE 20 24 11 13 - - -
22/02:30pm - - - - - ESE 17 20 9 11 - - -
22/02:00pm - - - - - E 17 20 9 11 - - -
22/01:30pm - - - - - ESE 13 17 7 9 - - -
22/01:00pm - - - - - ESE 11 15 6 8 - - -
22/12:30pm - - - - - E 7 11 4 6 - - -
22/12:00pm - - - - - ESE 9 13 5 7 - - -
22/11:30am - - - - - SE 7 9 4 5 - - -
22/11:00am - - - - - SE 13 17 7 9 - - -
22/10:30am - - - - - S 13 17 7 9 - - -
22/10:00am - - - - - SSW 15 20 8 11 - - -
22/09:30am - - - - - SW 11 17 6 9 - - -
22/09:00am - - - - - SW 9 17 5 9 - - -
22/08:30am - - - - - SSW 13 19 7 10 - - -
22/08:00am - - - - - SW 9 15 5 8 - - -
22/07:30am - - - - - SW 9 15 5 8 - - -
22/07:00am - - - - - W 6 7 3 4 - - -
22/06:30am - - - - - WSW 7 13 4 7 - - -
22/06:00am - - - - - NNW 6 9 3 5 - - -
22/05:30am - - - - - NNW 7 11 4 6 - - -
22/05:00am - - - - - N 6 9 3 5 - - -
22/04:30am - - - - - NNE 2 6 1 3 - - -
22/04:00am - - - - - CALM 0 4 0 2 - - -
22/03:30am - - - - - N 6 9 3 5 - - -
22/03:00am - - - - - N 6 6 3 3 - - -
22/02:30am - - - - - NNW 6 11 3 6 - - -
22/02:00am - - - - - CALM 0 6 0 3 - - -
22/01:30am - - - - - NNW 4 6 2 3 - - -
22/01:00am - - - - - N 7 13 4 7 - - -
22/12:30am - - - - - N 6 7 3 4 - - -
22/12:00am - - - - - N 9 13 5 7 - - -
 
Date/Time
EST
Temp
°C
App
Temp
°C
Dew
Point
°C
Rel
Hum
%
Delta-T
°C
Wind Press
QNH
hPa
Press
MSL
hPa
Rain since
9am
mm
Dir  Spd
km/h
Gust
km/h
Spd
kts
Gust
kts
21/11:30pm - - - - - N 13 20 7 11 - - -
21/11:00pm - - - - - N 15 20 8 11 - - -
21/10:30pm - - - - - N 17 24 9 13 - - -
21/10:00pm - - - - - NNE 20 30 11 16 - - -
21/09:30pm - - - - - N 20 32 11 17 - - -
21/09:00pm - - - - - N 20 32 11 17 - - -
21/08:30pm - - - - - NNE 24 39 13 21 - - -
21/08:00pm - - - - - NNE 32 44 17 24 - - -
21/07:30pm - - - - - NNE 22 32 12 17 - - -
21/07:00pm - - - - - NW 13 28 7 15 - - -
21/06:30pm - - - - - NNE 28 39 15 21 - - -
21/06:20pm - - - - - N 30 50 16 27 - - -
21/06:00pm - - - - - NNE 30 41 16 22 - - -
21/05:30pm - - - - - N 24 35 13 19 - - -
21/05:00pm - - - - - NNE 26 35 14 19 - - -
21/04:30pm - - - - - NNE 28 39 15 21 - - -
21/04:00pm - - - - - NNE 26 37 14 20 - - -
21/03:30pm - - - - - NNE 24 35 13 19 - - -
21/03:00pm - - - - - NNE 30 41 16 22 - - -
21/02:30pm - - - - - NNE 32 44 17 24 - - -
21/02:00pm - - - - - NNE 32 43 17 23 - - -
21/01:30pm - - - - - NNE 26 39 14 21 - - -
21/01:00pm - - - - - NNE 32 46 17 25 - - -
21/12:30pm - - - - - NNE 33 44 18 24 - - -
21/12:00pm - - - - - NNE 32 41 17 22 - - -
21/11:30am - - - - - NNE 28 37 15 20 - - -
21/11:00am - - - - - NNE 26 35 14 19 - - -
21/10:30am - - - - - NNE 24 35 13 19 - - -
21/10:00am - - - - - NNE 24 32 13 17 - - -
21/09:30am - - - - - NNE 24 33 13 18 - - -
21/09:00am - - - - - N 26 35 14 19 - - -
21/08:30am - - - - - N 24 37 13 20 - - -
21/08:00am - - - - - N 22 32 12 17 - - -
21/07:30am - - - - - N 22 33 12 18 - - -
21/07:00am - - - - - N 20 28 11 15 - - -
21/06:30am - - - - - N 20 32 11 17 - - -

Latest Capital City Observations: Canberra | Sydney | Melbourne | Brisbane | Adelaide | Perth | Hobart | Darwin

Other formats

Comma delimited format used in spreadsheet applications
http://www.bom.gov.au/fwo/IDN60901/IDN60901.94780.axf

JavaScript Object Notation format (JSON) in row-major order
http://www.bom.gov.au/fwo/IDN60901/IDN60901.94780.json

Data quality

Most of these data are generated automatically and are frequently updated. Quality checks on data are not normally performed. It is possible for incorrect values to appear. Refer to information at About Latest Weather Observations and please check the disclaimer before using these data.